createdAt,value
2022-10-02T00:01:22.013Z,70.40
2022-10-02T00:03:51.016Z,70.40
2022-10-02T00:06:24.133Z,70.40
2022-10-02T00:09:00.081Z,70.40
2022-10-02T00:11:34.368Z,70.40
2022-10-02T00:14:04.943Z,70.40
2022-10-02T00:16:37.102Z,70.40
2022-10-02T00:19:05.243Z,70.40
2022-10-02T00:22:02.308Z,70.40
2022-10-02T00:24:38.685Z,70.50
2022-10-02T00:27:15.743Z,70.40
2022-10-02T00:29:50.485Z,70.40
2022-10-02T00:32:26.289Z,70.40
2022-10-02T00:35:19.560Z,70.40
2022-10-02T00:37:54.506Z,70.40
2022-10-02T00:40:42.557Z,70.40
2022-10-02T00:43:24.944Z,70.40
2022-10-02T00:46:21.977Z,70.40
2022-10-02T00:49:00.852Z,71.30
2022-10-02T00:51:38.873Z,70.40
2022-10-02T00:54:29.944Z,70.40
2022-10-02T00:57:08.460Z,70.40
2022-10-02T00:59:55.192Z,70.40
2022-10-02T01:02:44.642Z,70.40
2022-10-02T01:05:13.412Z,70.40
2022-10-02T01:07:43.060Z,70.40
2022-10-02T01:10:12.628Z,70.40
2022-10-02T01:12:41.724Z,70.40
2022-10-02T01:15:13.087Z,70.40
2022-10-02T01:17:40.866Z,70.40
2022-10-02T01:20:17.573Z,70.40
2022-10-02T01:22:53.027Z,70.40
2022-10-02T01:25:22.201Z,70.40
2022-10-02T01:27:51.563Z,70.40
2022-10-02T01:30:21.437Z,70.40
2022-10-02T01:32:51.654Z,70.40
2022-10-02T01:35:21.936Z,70.50
2022-10-02T01:37:51.902Z,70.50
2022-10-02T01:40:29.192Z,70.50
2022-10-02T01:43:00.529Z,70.40
2022-10-02T01:45:40.119Z,70.30
2022-10-02T01:48:14.762Z,70.40
2022-10-02T01:50:53.560Z,70.30
2022-10-02T01:53:28.493Z,70.30
2022-10-02T01:56:07.828Z,70.40
2022-10-02T01:58:49.084Z,70.30
2022-10-02T02:01:27.731Z,70.30
2022-10-02T02:04:02.054Z,70.40
2022-10-02T02:06:32.669Z,70.20
2022-10-02T02:09:08.964Z,70.30
2022-10-02T02:11:45.065Z,70.40
2022-10-02T02:14:17.399Z,70.30
2022-10-02T02:16:49.116Z,70.40
2022-10-02T02:19:22.690Z,70.30
2022-10-02T02:21:56.613Z,70.30
2022-10-02T02:24:29.283Z,70.30
2022-10-02T02:27:01.484Z,70.30
2022-10-02T02:29:33.019Z,70.20
2022-10-02T02:32:03.634Z,70.30
2022-10-02T02:34:35.263Z,70.30
2022-10-02T02:37:06.717Z,70.20
2022-10-02T02:39:41.186Z,70.30
2022-10-02T02:42:17.654Z,70.30
2022-10-02T02:44:50.756Z,70.30
2022-10-02T02:47:22.422Z,70.30
2022-10-02T02:49:55.309Z,70.30
2022-10-02T02:52:27.219Z,70.30
2022-10-02T02:55:01.656Z,70.30
2022-10-02T02:57:36.887Z,70.20
2022-10-02T03:00:07.879Z,70.20
2022-10-02T03:02:35.733Z,70.30
2022-10-02T03:05:03.453Z,70.20
2022-10-02T03:07:31.181Z,70.20
2022-10-02T03:10:09.470Z,70.20
2022-10-02T03:12:54.709Z,70.30
2022-10-02T03:15:30.374Z,70.20
2022-10-02T03:18:21.087Z,70.30
2022-10-02T03:20:58.973Z,70.20
2022-10-02T03:23:30.914Z,70.20
2022-10-02T03:26:03.409Z,70.20
2022-10-02T03:28:54.813Z,70.20
2022-10-02T03:31:25.815Z,70.30
2022-10-02T03:33:54.875Z,70.20
2022-10-02T03:36:24.508Z,70.20
2022-10-02T03:39:19.721Z,70.20
2022-10-02T03:41:43.322Z,70.30
2022-10-02T03:44:12.360Z,70.30
2022-10-02T03:46:40.445Z,70.20
2022-10-02T03:49:08.421Z,70.30
2022-10-02T03:51:36.110Z,70.30
2022-10-02T03:54:04.456Z,70.30
2022-10-02T03:56:39.978Z,70.20
2022-10-02T03:59:17.706Z,70.20
2022-10-02T04:01:51.435Z,70.30
2022-10-02T04:04:25.365Z,70.30
2022-10-02T04:06:57.269Z,70.30
2022-10-02T04:09:30.608Z,70.30
2022-10-02T04:12:02.139Z,70.30
2022-10-02T04:14:39.171Z,71.00
2022-10-02T04:17:13.462Z,70.30
2022-10-02T04:19:46.664Z,70.20
2022-10-02T04:22:20.723Z,70.20
2022-10-02T04:24:52.732Z,70.20
2022-10-02T04:27:25.066Z,70.20
2022-10-02T04:29:57.810Z,70.20
2022-10-02T04:32:27.621Z,70.20
2022-10-02T04:34:55.438Z,70.20
2022-10-02T04:37:39.996Z,70.20
2022-10-02T04:40:29.918Z,70.30
2022-10-02T04:43:10.918Z,70.20
2022-10-02T04:45:56.283Z,70.20
2022-10-02T04:48:43.714Z,70.20
2022-10-02T04:51:24.616Z,70.20
2022-10-02T04:54:09.397Z,70.20
2022-10-02T04:56:56.928Z,70.30
2022-10-02T04:59:34.055Z,70.20
2022-10-02T05:02:12.667Z,70.20
2022-10-02T05:05:10.852Z,70.30
2022-10-02T05:07:54.145Z,70.30
2022-10-02T05:10:35.086Z,70.30
2022-10-02T05:13:15.253Z,70.20
2022-10-02T05:16:03.559Z,70.30
2022-10-02T05:18:57.266Z,70.30
2022-10-02T05:21:44.582Z,70.30
2022-10-02T05:24:23.325Z,70.20
2022-10-02T05:27:07.702Z,70.30
2022-10-02T05:30:04.661Z,70.30
2022-10-02T05:32:57.661Z,70.30
2022-10-02T05:35:40.237Z,70.30
2022-10-02T05:38:19.029Z,70.30
2022-10-02T05:40:56.450Z,70.20
2022-10-02T05:43:30.229Z,70.30
2022-10-02T05:46:02.012Z,70.30
2022-10-02T05:48:33.628Z,70.30
2022-10-02T05:51:07.979Z,70.30
2022-10-02T05:53:41.200Z,71.10
2022-10-02T05:56:13.425Z,70.30
2022-10-02T05:58:50.677Z,70.30
2022-10-02T06:01:24.097Z,70.30
2022-10-02T06:03:58.934Z,70.30
2022-10-02T06:06:39.553Z,70.30
2022-10-02T06:09:19.539Z,70.30
2022-10-02T06:11:52.546Z,70.30
2022-10-02T06:14:27.429Z,70.30
2022-10-02T06:17:00.267Z,70.20
2022-10-02T06:19:33.626Z,70.30
2022-10-02T06:22:08.071Z,70.30
2022-10-02T06:24:40.194Z,70.30
2022-10-02T06:27:14.037Z,71.00
2022-10-02T06:29:47.354Z,70.30
2022-10-02T06:32:22.351Z,70.30
2022-10-02T06:34:51.158Z,70.30
2022-10-02T06:37:36.205Z,70.30
2022-10-02T06:40:41.682Z,70.30
2022-10-02T06:43:33.090Z,70.30
2022-10-02T06:46:13.189Z,70.30
2022-10-02T06:48:48.599Z,70.20
2022-10-02T06:51:24.357Z,70.20
2022-10-02T06:54:19.023Z,70.40
2022-10-02T06:57:02.141Z,70.20
2022-10-02T06:59:43.890Z,71.10
2022-10-02T07:02:25.139Z,70.20
2022-10-02T07:05:10.566Z,70.20
2022-10-02T07:07:50.799Z,70.30
2022-10-02T07:10:32.803Z,70.20
2022-10-02T07:13:13.513Z,70.30
2022-10-02T07:15:58.611Z,70.20
2022-10-02T07:18:36.576Z,70.30
2022-10-02T07:21:11.131Z,70.30
2022-10-02T07:23:48.406Z,70.40
2022-10-02T07:26:48.596Z,70.30
2022-10-02T07:29:28.240Z,70.30
2022-10-02T07:32:22.051Z,70.30
2022-10-02T07:34:59.015Z,70.30
2022-10-02T07:37:35.562Z,70.30
2022-10-02T07:40:18.451Z,70.40
2022-10-02T07:42:59.674Z,70.30
2022-10-02T07:45:37.418Z,70.30
2022-10-02T07:48:35.829Z,70.30
2022-10-02T07:51:31.288Z,70.30
2022-10-02T07:54:06.484Z,70.30
2022-10-02T07:56:35.848Z,70.40
2022-10-02T07:59:11.747Z,70.30
2022-10-02T08:01:41.728Z,70.40
2022-10-02T08:04:13.374Z,70.40
2022-10-02T08:06:42.011Z,70.40
2022-10-02T08:09:16.245Z,70.40
2022-10-02T08:11:49.665Z,70.40
2022-10-02T08:14:25.316Z,70.40
2022-10-02T08:16:55.424Z,70.40
2022-10-02T08:19:29.773Z,70.40
2022-10-02T08:22:03.987Z,70.50
2022-10-02T08:24:37.381Z,70.40
2022-10-02T08:27:11.420Z,70.40
2022-10-02T08:29:44.942Z,70.40
2022-10-02T08:32:13.285Z,70.40
2022-10-02T08:34:42.034Z,70.40
2022-10-02T08:37:32.008Z,70.50
2022-10-02T08:40:29.945Z,70.50
2022-10-02T08:43:37.512Z,70.50
2022-10-02T08:46:44.954Z,70.50
2022-10-02T08:49:46.419Z,70.50
2022-10-02T08:52:31.108Z,70.60
2022-10-02T08:55:24.497Z,70.50
2022-10-02T08:58:28.242Z,70.50
2022-10-02T09:01:04.338Z,70.60
2022-10-02T09:04:03.598Z,70.60
2022-10-02T09:07:05.485Z,70.60
2022-10-02T09:10:03.578Z,70.60
2022-10-02T09:13:00.456Z,70.60
2022-10-02T09:15:43.934Z,70.70
2022-10-02T09:18:18.264Z,70.60
2022-10-02T09:21:17.031Z,70.70
2022-10-02T09:24:29.884Z,70.70
2022-10-02T09:27:21.959Z,70.70
2022-10-02T09:30:26.912Z,70.70
2022-10-02T09:33:27.353Z,70.70
2022-10-02T09:36:34.480Z,70.70
2022-10-02T09:39:41.350Z,70.70
2022-10-02T09:42:48.191Z,70.70
2022-10-02T09:45:38.351Z,70.70
2022-10-02T09:48:47.694Z,70.80
2022-10-02T09:52:00.252Z,70.80
2022-10-02T09:55:07.200Z,70.80
2022-10-02T09:58:26.794Z,70.80
2022-10-02T10:01:19.100Z,70.80
2022-10-02T10:04:08.300Z,70.80
2022-10-02T10:07:07.351Z,70.80
2022-10-02T10:10:10.754Z,70.80
2022-10-02T10:13:08.341Z,70.80
2022-10-02T10:16:13.732Z,70.80
2022-10-02T10:19:17.755Z,70.80
2022-10-02T10:22:13.772Z,70.80
2022-10-02T10:25:29.923Z,70.80
2022-10-02T10:28:33.662Z,70.90
2022-10-02T10:31:35.077Z,70.90
2022-10-02T10:34:46.094Z,70.90
2022-10-02T10:37:54.204Z,70.90
2022-10-02T10:40:35.757Z,71.00
2022-10-02T10:43:51.304Z,71.10
2022-10-02T10:46:37.202Z,71.10
2022-10-02T10:49:24.293Z,71.10
2022-10-02T10:52:07.336Z,71.10
2022-10-02T10:55:01.641Z,71.10
2022-10-02T10:57:50.691Z,71.20
2022-10-02T11:00:24.691Z,71.20
2022-10-02T11:03:23.276Z,71.40
2022-10-02T11:06:18.761Z,71.40
2022-10-02T11:09:08.919Z,71.40
2022-10-02T11:11:50.908Z,71.50
2022-10-02T11:14:29.321Z,71.50
2022-10-02T11:17:35.609Z,71.40
2022-10-02T11:20:29.878Z,71.50
2022-10-02T11:23:16.086Z,71.50
2022-10-02T11:26:01.756Z,71.50
2022-10-02T11:28:58.766Z,71.40
2022-10-02T11:31:39.132Z,71.50
2022-10-02T11:34:37.995Z,71.40
2022-10-02T11:37:24.349Z,71.50
2022-10-02T11:40:23.650Z,71.50
2022-10-02T11:43:11.198Z,71.50
2022-10-02T11:46:06.324Z,71.50
2022-10-02T11:48:56.690Z,71.50
2022-10-02T11:52:05.788Z,71.50
2022-10-02T11:54:45.464Z,71.50
2022-10-02T11:57:22.628Z,71.50
2022-10-02T12:00:25.949Z,71.60
2022-10-02T12:03:01.969Z,71.60
2022-10-02T12:05:45.195Z,71.60
2022-10-02T12:08:20.632Z,71.60
2022-10-02T12:10:54.578Z,71.60
2022-10-02T12:13:37.373Z,71.60
2022-10-02T12:16:12.964Z,71.70
2022-10-02T12:18:53.166Z,71.70
2022-10-02T12:21:54.662Z,71.80
2022-10-02T12:24:52.668Z,71.80
2022-10-02T12:27:32.102Z,71.90
2022-10-02T12:30:07.507Z,71.80
2022-10-02T12:32:57.635Z,71.80
2022-10-02T12:35:40.982Z,71.80
2022-10-02T12:38:21.993Z,71.90
2022-10-02T12:40:59.477Z,71.90
2022-10-02T12:43:55.422Z,71.80
2022-10-02T12:46:37.895Z,71.90
2022-10-02T12:49:21.897Z,71.90
2022-10-02T12:52:06.949Z,71.90
2022-10-02T12:55:02.706Z,71.90
2022-10-02T12:57:52.588Z,72.00
2022-10-02T13:00:22.390Z,71.90
2022-10-02T13:03:26.204Z,71.90
2022-10-02T13:06:18.365Z,72.00
2022-10-02T13:09:09.477Z,72.00
2022-10-02T13:11:50.527Z,72.00
2022-10-02T13:14:38.952Z,72.10
2022-10-02T13:17:21.958Z,72.10
2022-10-02T13:20:02.285Z,72.10
2022-10-02T13:22:39.542Z,72.10
2022-10-02T13:25:34.313Z,72.10
2022-10-02T13:28:20.780Z,72.20
2022-10-02T13:30:59.415Z,72.20
2022-10-02T13:33:43.177Z,72.20
2022-10-02T13:36:20.785Z,72.30
2022-10-02T13:39:16.434Z,72.30
2022-10-02T13:42:01.362Z,72.30
2022-10-02T13:44:39.718Z,72.30
2022-10-02T13:47:22.353Z,72.20
2022-10-02T13:50:17.525Z,72.20
2022-10-02T13:52:57.798Z,72.20
2022-10-02T13:55:27.194Z,72.20
2022-10-02T13:58:06.985Z,72.20
2022-10-02T14:00:55.344Z,72.20
2022-10-02T14:03:36.006Z,72.20
2022-10-02T14:06:13.384Z,72.20
2022-10-02T14:09:07.733Z,72.20
2022-10-02T14:11:49.834Z,72.20
2022-10-02T14:14:29.640Z,72.20
2022-10-02T14:17:10.833Z,72.10
2022-10-02T14:20:04.425Z,72.10
2022-10-02T14:22:41.808Z,72.10
2022-10-02T14:25:35.522Z,72.10
2022-10-02T14:28:33.910Z,72.10
2022-10-02T14:31:17.542Z,72.10
2022-10-02T14:34:10.831Z,72.10
2022-10-02T14:36:46.482Z,72.10
2022-10-02T14:39:26.422Z,72.10
2022-10-02T14:42:16.392Z,72.10
2022-10-02T14:45:16.838Z,72.10
2022-10-02T14:47:59.305Z,72.10
2022-10-02T14:50:40.734Z,72.10
2022-10-02T14:53:21.255Z,72.10
2022-10-02T14:56:17.953Z,72.10
2022-10-02T14:58:58.740Z,72.10
2022-10-02T15:01:37.760Z,72.10
2022-10-02T15:04:40.263Z,72.00
2022-10-02T15:07:11.536Z,72.10
2022-10-02T15:10:02.430Z,72.00
2022-10-02T15:12:43.532Z,72.00
2022-10-02T15:15:15.865Z,72.00
2022-10-02T15:17:55.026Z,72.00
2022-10-02T15:20:33.548Z,71.90
2022-10-02T15:23:03.276Z,72.00
2022-10-02T15:26:02.748Z,71.90
2022-10-02T15:28:45.243Z,72.00
2022-10-02T15:31:21.324Z,71.90
2022-10-02T15:34:03.337Z,72.00
2022-10-02T15:36:45.257Z,72.00
2022-10-02T15:39:45.975Z,72.00
2022-10-02T15:42:27.460Z,72.00
2022-10-02T15:45:09.920Z,72.00
2022-10-02T15:48:03.979Z,72.00
2022-10-02T15:50:44.506Z,72.00
2022-10-02T15:53:47.502Z,72.00
2022-10-02T15:56:31.640Z,72.00
2022-10-02T15:59:10.591Z,72.00
2022-10-02T16:01:51.608Z,72.00
2022-10-02T16:04:31.502Z,72.00
2022-10-02T16:07:36.881Z,72.00
2022-10-02T16:10:19.732Z,72.00
2022-10-02T16:13:02.241Z,72.00
2022-10-02T16:15:40.194Z,72.00
2022-10-02T16:18:24.998Z,72.00
2022-10-02T16:21:07.236Z,72.00
2022-10-02T16:23:54.801Z,72.00
2022-10-02T16:26:38.601Z,72.00
2022-10-02T16:29:18.763Z,72.00
2022-10-02T16:32:00.545Z,72.00
2022-10-02T16:34:43.024Z,72.00
2022-10-02T16:37:23.996Z,72.00
2022-10-02T16:39:59.135Z,72.00
2022-10-02T16:42:39.999Z,72.00
2022-10-02T16:45:45.214Z,72.00
2022-10-02T16:48:17.832Z,72.10
2022-10-02T16:51:04.570Z,72.00
2022-10-02T16:53:37.585Z,72.10
2022-10-02T16:56:14.504Z,72.10
2022-10-02T16:58:50.054Z,72.10
2022-10-02T17:01:26.999Z,72.00
2022-10-02T17:04:18.122Z,72.00
2022-10-02T17:06:50.609Z,72.10
2022-10-02T17:09:22.032Z,72.00
2022-10-02T17:11:54.575Z,72.00
2022-10-02T17:14:30.978Z,72.00
2022-10-02T17:17:03.834Z,72.00
2022-10-02T17:19:36.575Z,72.00
2022-10-02T17:22:09.954Z,72.00
2022-10-02T17:24:48.485Z,72.00
2022-10-02T17:27:27.642Z,72.10
2022-10-02T17:30:04.974Z,72.00
2022-10-02T17:32:49.586Z,72.00
2022-10-02T17:35:19.365Z,72.00
2022-10-02T17:38:07.815Z,72.00
2022-10-02T17:40:41.323Z,72.10
2022-10-02T17:43:20.304Z,72.00
2022-10-02T17:45:58.231Z,72.00
2022-10-02T17:48:37.245Z,72.00
2022-10-02T17:51:50.796Z,72.10
2022-10-02T17:54:47.571Z,71.90
2022-10-02T17:57:31.703Z,72.00
2022-10-02T18:00:14.367Z,72.00
2022-10-02T18:03:20.284Z,72.00
2022-10-02T18:06:14.303Z,72.00
2022-10-02T18:09:06.212Z,72.30
2022-10-02T18:11:56.927Z,72.00
2022-10-02T18:14:40.938Z,72.10
2022-10-02T18:17:16.120Z,72.00
2022-10-02T18:20:00.052Z,72.00
2022-10-02T18:22:46.288Z,72.10
2022-10-02T18:25:58.909Z,72.10
2022-10-02T18:28:45.680Z,72.00
2022-10-02T18:31:53.987Z,71.90
2022-10-02T18:34:29.922Z,71.90
2022-10-02T18:37:21.961Z,71.90
2022-10-02T18:40:06.846Z,72.00
2022-10-02T18:42:50.065Z,71.90
2022-10-02T18:45:34.129Z,71.90
2022-10-02T18:48:29.136Z,71.90
2022-10-02T18:51:16.491Z,71.90
2022-10-02T18:53:58.501Z,71.90
2022-10-02T18:56:44.419Z,71.90
2022-10-02T18:59:23.003Z,71.90
2022-10-02T19:02:03.311Z,71.90
2022-10-02T19:04:55.202Z,71.90
2022-10-02T19:07:29.260Z,71.90
2022-10-02T19:10:29.761Z,71.90
2022-10-02T19:13:01.850Z,71.80
2022-10-02T19:15:31.835Z,71.90
2022-10-02T19:18:04.064Z,71.90
2022-10-02T19:20:40.635Z,71.80
2022-10-02T19:23:09.984Z,71.80
2022-10-02T19:25:46.314Z,71.90
2022-10-02T19:28:19.959Z,71.80
2022-10-02T19:30:50.370Z,71.80
2022-10-02T19:33:24.028Z,71.80
2022-10-02T19:35:52.689Z,71.90
2022-10-02T19:38:30.315Z,71.80
2022-10-02T19:41:02.882Z,71.80
2022-10-02T19:43:33.690Z,71.80
2022-10-02T19:46:05.217Z,71.70
2022-10-02T19:48:33.910Z,71.80
2022-10-02T19:51:04.130Z,71.80
2022-10-02T19:53:34.496Z,71.70
2022-10-02T19:56:07.456Z,71.70
2022-10-02T19:58:39.611Z,71.70
2022-10-02T20:01:15.400Z,71.70
2022-10-02T20:03:44.553Z,71.70
2022-10-02T20:06:16.775Z,71.70
2022-10-02T20:08:47.225Z,71.70
2022-10-02T20:11:22.395Z,71.70
2022-10-02T20:13:55.935Z,71.70
2022-10-02T20:16:43.406Z,71.70
2022-10-02T20:19:17.596Z,71.70
2022-10-02T20:21:49.418Z,71.70
2022-10-02T20:24:23.750Z,71.70
2022-10-02T20:26:56.102Z,71.70
2022-10-02T20:29:31.444Z,71.70
2022-10-02T20:32:04.503Z,71.70
2022-10-02T20:34:40.135Z,71.70
2022-10-02T20:37:13.374Z,71.70
2022-10-02T20:39:46.189Z,71.70
2022-10-02T20:42:21.068Z,71.70
2022-10-02T20:44:48.874Z,71.70
2022-10-02T20:47:38.064Z,71.70
2022-10-02T20:50:41.325Z,71.70
2022-10-02T20:54:01.189Z,71.70
2022-10-02T20:56:58.118Z,71.60
2022-10-02T21:00:08.693Z,71.60
2022-10-02T21:03:04.955Z,71.70
2022-10-02T21:05:53.575Z,71.70
2022-10-02T21:08:55.882Z,71.70
2022-10-02T21:11:45.432Z,71.70
2022-10-02T21:14:38.888Z,71.70
2022-10-02T21:17:31.670Z,71.60
2022-10-02T21:20:49.573Z,71.70
2022-10-02T21:23:55.820Z,71.70
2022-10-02T21:26:50.903Z,71.60
2022-10-02T21:29:38.856Z,71.60
2022-10-02T21:32:39.331Z,71.60
2022-10-02T21:35:16.366Z,71.70
2022-10-02T21:38:00.809Z,71.60
2022-10-02T21:41:07.116Z,71.60
2022-10-02T21:44:03.593Z,71.60
2022-10-02T21:47:00.998Z,71.60
2022-10-02T21:49:55.388Z,71.60
2022-10-02T21:53:05.189Z,71.60
2022-10-02T21:56:06.429Z,71.70
2022-10-02T21:59:12.903Z,71.60
2022-10-02T22:02:08.686Z,71.60
2022-10-02T22:04:55.628Z,71.60
2022-10-02T22:07:31.252Z,71.60
2022-10-02T22:10:06.075Z,71.60
2022-10-02T22:12:48.109Z,71.60
2022-10-02T22:15:21.798Z,71.60
2022-10-02T22:17:59.629Z,71.60
2022-10-02T22:20:42.631Z,71.60
2022-10-02T22:23:28.852Z,71.60
2022-10-02T22:26:10.730Z,71.60
2022-10-02T22:28:44.815Z,71.50
2022-10-02T22:31:42.203Z,71.60
2022-10-02T22:34:31.926Z,71.50
2022-10-02T22:37:29.482Z,71.60
2022-10-02T22:40:05.823Z,71.50
2022-10-02T22:42:40.373Z,71.60
2022-10-02T22:45:18.555Z,71.60
2022-10-02T22:47:54.450Z,71.50
2022-10-02T22:50:28.599Z,71.50
2022-10-02T22:53:05.196Z,71.50
2022-10-02T22:55:37.604Z,71.50
2022-10-02T22:58:12.594Z,71.50
2022-10-02T23:00:57.499Z,71.60
2022-10-02T23:03:32.558Z,71.50
2022-10-02T23:06:05.535Z,71.50
2022-10-02T23:08:38.117Z,71.50
2022-10-02T23:11:14.408Z,71.50
2022-10-02T23:13:47.398Z,71.50
2022-10-02T23:16:23.270Z,71.50
2022-10-02T23:18:57.481Z,71.50
2022-10-02T23:21:32.594Z,71.60
2022-10-02T23:24:07.884Z,71.60
2022-10-02T23:26:40.132Z,71.60
2022-10-02T23:29:26.552Z,71.50
2022-10-02T23:32:00.716Z,71.40
2022-10-02T23:34:40.396Z,71.40
2022-10-02T23:37:16.790Z,71.50
2022-10-02T23:39:50.280Z,71.50
2022-10-02T23:42:27.178Z,71.40
2022-10-02T23:45:00.496Z,71.40
2022-10-02T23:47:43.364Z,71.40
2022-10-02T23:50:22.629Z,71.50
2022-10-02T23:53:11.210Z,71.40
2022-10-02T23:55:53.371Z,71.40
2022-10-02T23:58:57.295Z,71.40
